Time;durP1;ratioP1;P1;durP2;ratioP2;P2;SDS_P1;SDS_P2;PMS_P1;PMS_P2;Temp;Humidity;BMP_temperature;BMP_pressure;BME280_temperature;BME280_humidity;BME280_pressure;Samples;Min_cycle;Max_cycle;Signal;HPM_P1;HPM_P2
2023/10/22 00:00:26;;;;;;;6.50;5.20;;;;;;;17.51;53.17;99817.84;2302647;75;51812;-76
2023/10/22 00:03:28;;;;;;;7.67;5.37;;;;;;;17.56;53.04;99819.42;2277132;76;51402;-76
2023/10/22 00:06:31;;;;;;;7.45;5.22;;;;;;;17.66;52.76;99826.28;2326877;75;50664;-76
2023/10/22 00:09:33;;;;;;;7.87;5.10;;;;;;;17.71;52.61;99839.89;2300293;76;50698;-77
2023/10/22 00:12:35;;;;;;;9.53;5.60;;;;;;;17.69;52.69;99845.95;2326906;76;51411;-75
2023/10/22 00:15:42;;;;;;;6.58;5.30;;;;;;;17.66;52.76;99837.80;2275018;76;51615;-76
2023/10/22 00:18:41;;;;;;;8.50;5.33;;;;;;;17.57;53.00;99842.49;2274288;76;22404;-76
2023/10/22 00:21:45;;;;;;;6.55;5.12;;;;;;;17.53;53.13;99844.41;2327070;76;50661;-76
2023/10/22 00:24:48;;;;;;;7.35;5.80;;;;;;;17.51;53.17;99847.27;2275076;76;50155;-76
2023/10/22 00:27:51;;;;;;;8.53;5.92;;;;;;;17.51;53.18;99852.62;2300279;76;50737;-76
2023/10/22 00:30:53;;;;;;;7.40;5.22;;;;;;;17.50;53.23;99854.98;2301565;76;51647;-76
2023/10/22 00:33:56;;;;;;;8.00;5.50;;;;;;;17.52;53.21;99849.42;2274092;76;50860;-76
2023/10/22 00:36:58;;;;;;;8.00;5.67;;;;;;;17.57;53.06;99841.16;2300120;76;50442;-74
2023/10/22 00:40:00;;;;;;;8.50;5.87;;;;;;;17.57;53.06;99841.64;2326115;76;51163;-74
2023/10/22 00:43:06;;;;;;;8.13;5.60;;;;;;;17.57;53.08;99848.33;2326686;74;50876;-74
2023/10/22 00:46:07;;;;;;;;;;;;;;;17.52;53.17;99846.27;2277071;76;51352;-76
2023/10/22 00:49:11;;;;;;;7.12;5.65;;;;;;;17.51;53.24;99852.62;2327032;76;50306;-77
2023/10/22 00:52:13;;;;;;;7.00;5.30;;;;;;;17.49;53.28;99845.81;2326858;76;50334;-75
2023/10/22 00:55:15;;;;;;;7.67;5.22;;;;;;;17.48;53.29;99853.02;2327020;75;50157;-76
2023/10/22 00:58:17;;;;;;;8.80;6.28;;;;;;;17.47;53.32;99868.76;2327011;76;51355;-76
2023/10/22 01:01:20;;;;;;;6.83;5.20;;;;;;;17.46;53.34;99860.40;2294052;76;50380;-76
2023/10/22 01:04:23;;;;;;;7.33;5.33;;;;;;;17.46;53.35;99865.75;2287502;77;50450;-76
2023/10/22 01:07:26;;;;;;;7.00;5.67;;;;;;;17.49;53.27;99869.36;2288153;77;52730;-76
2023/10/22 01:10:28;;;;;;;6.80;5.00;;;;;;;17.53;53.16;99859.94;2288516;76;51468;-76
2023/10/22 01:13:30;;;;;;;7.75;5.83;;;;;;;17.53;53.16;99863.13;2261917;76;50885;-75
2023/10/22 01:16:33;;;;;;;8.50;5.50;;;;;;;17.50;53.22;99854.98;2261742;77;51815;-76
2023/10/22 01:19:36;;;;;;;8.70;6.00;;;;;;;17.50;53.26;99855.50;2287684;77;50672;-75
2023/10/22 01:22:38;;;;;;;8.08;5.50;;;;;;;17.48;53.33;99854.35;2287684;76;51472;-76
2023/10/22 01:25:40;;;;;;;7.10;5.42;;;;;;;17.47;53.35;99858.06;2261889;77;50732;-75
2023/10/22 01:28:42;;;;;;;7.10;5.05;;;;;;;17.47;53.35;99862.07;2287863;76;51434;-75
2023/10/22 01:31:44;;;;;;;6.85;5.45;;;;;;;17.47;53.33;99857.20;2305682;75;52387;-75
2023/10/22 01:34:46;;;;;;;8.50;6.12;;;;;;;17.46;53.36;99852.38;2272514;76;50226;-75
2023/10/22 01:37:49;;;;;;;6.70;5.05;;;;;;;17.47;53.35;99842.50;2271559;76;50161;-76
2023/10/22 01:40:51;;;;;;;6.25;5.00;;;;;;;17.51;53.23;99833.89;2298211;76;50282;-76
2023/10/22 01:43:53;;;;;;;7.97;5.67;;;;;;;17.61;52.97;99829.54;2324568;76;50637;-75
2023/10/22 01:46:56;;;;;;;6.45;5.20;;;;;;;17.67;52.79;99817.22;2298253;76;50041;-75
2023/10/22 01:49:58;;;;;;;7.15;5.53;;;;;;;17.63;52.89;99831.00;2271443;76;50640;-75
2023/10/22 01:53:00;;;;;;;8.25;5.65;;;;;;;17.60;53.01;99824.70;2271428;76;50601;-75
2023/10/22 01:56:04;;;;;;;7.92;5.80;;;;;;;17.56;53.13;99825.29;2272914;76;52434;-74
2023/10/22 01:59:06;;;;;;;7.70;5.33;;;;;;;17.51;53.24;99829.88;2272295;76;50464;-76
2023/10/22 02:02:08;;;;;;;8.23;6.08;;;;;;;17.49;53.34;99833.26;2330711;76;50292;-73
2023/10/22 02:05:11;;;;;;;7.08;5.35;;;;;;;17.48;53.38;99838.30;2264318;77;52807;-75
2023/10/22 02:08:13;;;;;;;6.70;5.30;;;;;;;17.46;53.38;99841.67;2262318;77;51634;-76
2023/10/22 02:11:16;;;;;;;7.10;5.55;;;;;;;17.46;53.43;99841.67;2288617;75;50715;-76
2023/10/22 02:14:18;;;;;;;7.65;5.65;;;;;;;17.46;53.43;99843.02;2260346;75;50666;-76
2023/10/22 02:17:20;;;;;;;6.45;4.83;;;;;;;17.47;53.39;99847.84;2287833;77;50740;-76
2023/10/22 02:20:22;;;;;;;6.83;5.42;;;;;;;17.44;53.46;99856.27;2260088;77;51047;-76
2023/10/22 02:23:25;;;;;;;6.08;4.97;;;;;;;17.45;53.44;99860.61;2262130;77;50285;-76
2023/10/22 02:26:27;;;;;;;7.53;5.70;;;;;;;17.44;53.45;99861.61;2287917;75;50249;-76
2023/10/22 02:29:30;;;;;;;7.25;5.58;;;;;;;17.45;53.44;99870.80;2236752;76;51705;-75
2023/10/22 02:32:33;;;;;;;8.23;5.22;;;;;;;17.46;53.44;99870.28;2331069;76;50335;-76
2023/10/22 02:35:41;;;;;;;7.97;5.47;;;;;;;17.45;53.46;99885.50;2299782;76;51542;-76
2023/10/22 02:38:44;;;;;;;8.45;5.72;;;;;;;17.45;53.47;99878.00;2298479;76;50797;-76
2023/10/22 02:41:46;;;;;;;7.50;5.42;;;;;;;17.43;53.46;99879.52;2298508;76;51566;-76
2023/10/22 02:44:48;;;;;;;6.53;5.17;;;;;;;17.47;53.39;99894.17;2298323;76;51582;-76
2023/10/22 02:47:50;;;;;;;8.25;5.45;;;;;;;17.54;53.21;99900.37;2271699;76;51523;-77
2023/10/22 02:50:52;;;;;;;7.15;5.40;;;;;;;17.64;52.95;99906.20;2325098;76;51361;-76
2023/10/22 02:53:55;;;;;;;8.38;5.53;;;;;;;17.69;52.79;99905.62;2324872;76;52382;-76
2023/10/22 02:56:57;;;;;;;6.25;5.00;;;;;;;17.72;52.71;99899.06;2299134;76;50266;-76
2023/10/22 02:59:59;;;;;;;8.03;5.80;;;;;;;17.68;52.80;99897.81;2299180;76;50282;-77
2023/10/22 03:03:02;;;;;;;5.67;4.70;;;;;;;17.59;53.02;99901.95;2275470;76;50738;-75
2023/10/22 03:06:07;;;;;;;6.83;5.03;;;;;;;17.53;53.20;99897.39;2300750;76;51551;-75
2023/10/22 03:09:09;;;;;;;7.85;5.72;;;;;;;17.50;53.29;99893.77;2301089;76;51656;-74
2023/10/22 03:12:11;;;;;;;6.45;5.22;;;;;;;17.47;53.37;99892.83;2300429;76;50183;-75
2023/10/22 03:15:14;;;;;;;6.83;5.20;;;;;;;17.46;53.44;99899.18;2300686;76;51462;-75
2023/10/22 03:18:16;;;;;;;7.17;5.20;;;;;;;17.48;53.42;99898.48;2275287;76;51690;-74
2023/10/22 03:21:28;;;;;;;7.65;5.42;;;;;;;17.46;53.46;99907.20;2300953;75;50573;-76
2023/10/22 03:24:27;;;;;;;6.20;5.08;;;;;;;17.46;53.46;99902.37;2326695;75;22353;-75
2023/10/22 03:27:29;;;;;;;6.25;4.78;;;;;;;17.45;53.46;99898.88;2301151;75;50333;-75
2023/10/22 03:30:31;;;;;;;6.53;5.08;;;;;;;17.44;53.51;99899.06;2303192;76;50636;-75
2023/10/22 03:33:33;;;;;;;5.62;5.03;;;;;;;17.45;53.47;99906.08;2300604;76;51551;-76
2023/10/22 03:36:35;;;;;;;7.22;5.00;;;;;;;17.44;53.52;99907.90;2327668;76;51704;-76
2023/10/22 03:39:38;;;;;;;6.37;5.10;;;;;;;17.46;53.46;99911.21;2300767;75;52264;-75
2023/10/22 03:42:40;;;;;;;5.55;4.50;;;;;;;17.44;53.51;99917.78;2302446;76;51914;-76
2023/10/22 03:45:42;;;;;;;6.95;5.10;;;;;;;17.44;53.51;99917.26;2328423;76;50781;-77
2023/10/22 03:48:45;;;;;;;6.00;4.53;;;;;;;17.44;53.50;99913.25;2301395;76;50245;-76
2023/10/22 03:51:47;;;;;;;6.70;5.20;;;;;;;17.47;53.46;99914.22;2301198;76;50248;-76
2023/10/22 03:54:49;;;;;;;6.12;4.58;;;;;;;17.58;53.15;99917.70;2327819;76;50393;-76
2023/10/22 03:57:51;;;;;;;6.70;4.97;;;;;;;17.68;52.89;99913.86;2286013;76;51711;-76
2023/10/22 04:00:56;;;;;;;6.47;4.95;;;;;;;17.69;52.80;99919.00;2329941;76;51334;-76
2023/10/22 04:03:58;;;;;;;5.90;4.67;;;;;;;17.63;52.98;99923.29;2331374;76;51654;-74
2023/10/22 04:07:01;;;;;;;7.40;5.15;;;;;;;17.57;53.15;99917.39;2300713;75;51637;-76
2023/10/22 04:10:09;;;;;;;6.08;4.60;;;;;;;17.51;53.30;99918.66;2327639;75;50725;-76
2023/10/22 04:13:07;;;;;;;6.47;4.80;;;;;;;17.49;53.38;99920.70;2301410;75;22654;-73
2023/10/22 04:16:17;;;;;;;7.30;5.08;;;;;;;17.46;53.46;99923.25;2300887;76;51505;-75
2023/10/22 04:19:19;;;;;;;6.78;5.05;;;;;;;17.45;53.46;99921.61;2327458;76;50773;-73
2023/10/22 04:22:21;;;;;;;4.97;4.45;;;;;;;17.46;53.48;99923.77;2275375;76;51641;-74
2023/10/22 04:25:23;;;;;;;6.80;4.75;;;;;;;17.46;53.48;99924.59;2300961;76;50716;-75
2023/10/22 04:28:26;;;;;;;7.40;4.50;;;;;;;17.45;53.50;99928.30;2300686;76;51578;-77
2023/10/22 04:31:28;;;;;;;5.62;4.90;;;;;;;17.45;53.50;99924.28;2299187;76;50743;-75
2023/10/22 04:34:30;;;;;;;6.00;4.67;;;;;;;17.44;53.52;99922.61;2312912;76;51552;-73
2023/10/22 04:37:32;;;;;;;6.60;4.80;;;;;;;17.44;53.51;99925.28;2275077;76;52381;-74
2023/10/22 04:40:35;;;;;;;6.75;4.53;;;;;;;17.44;53.53;99925.28;2274165;76;50692;-74
2023/10/22 04:43:37;;;;;;;7.15;5.03;;;;;;;17.45;53.48;99928.81;2326655;76;50788;-76
2023/10/22 04:46:39;;;;;;;5.20;4.50;;;;;;;17.45;53.50;99928.30;2249136;76;51740;-75
2023/10/22 04:49:43;;;;;;;6.28;4.75;;;;;;;17.46;53.49;99942.48;2273821;76;51427;-75
2023/10/22 04:52:45;;;;;;;5.22;4.25;;;;;;;17.45;53.52;99938.99;2327071;76;50393;-73
2023/10/22 04:55:58;;;;;;;5.97;4.55;;;;;;;17.44;53.56;99936.50;2275116;76;51309;-74
2023/10/22 04:59:00;;;;;;;6.53;4.58;;;;;;;17.49;53.44;99928.20;2327128;76;51609;-74
2023/10/22 05:02:03;;;;;;;8.23;4.65;;;;;;;17.61;53.10;99937.36;2297833;76;50582;-76
2023/10/22 05:05:05;;;;;;;4.97;4.45;;;;;;;17.61;53.06;99932.02;2286830;76;50282;-76
2023/10/22 05:08:09;;;;;;;4.95;4.08;;;;;;;17.59;53.11;99935.39;2288253;76;50675;-76
2023/10/22 05:11:15;;;;;;;5.45;4.40;;;;;;;17.56;53.21;99931.77;2287307;76;51256;-76
2023/10/22 05:14:17;;;;;;;5.25;4.25;;;;;;;17.53;53.30;99935.35;2262530;77;50335;-75
2023/10/22 05:17:19;;;;;;;5.70;4.33;;;;;;;17.49;53.41;99934.89;2262182;77;50313;-76
2023/10/22 05:20:21;;;;;;;7.05;4.70;;;;;;;17.47;53.44;99940.97;2262190;77;50470;-75
2023/10/22 05:23:26;;;;;;;5.78;4.05;;;;;;;17.45;53.52;99936.83;2262100;76;50396;-75
2023/10/22 05:26:27;;;;;;;5.80;4.55;;;;;;;17.46;53.51;99941.97;2262722;77;22215;-76
2023/10/22 05:29:30;;;;;;;5.45;4.37;;;;;;;17.45;53.53;99948.35;2288022;77;50724;-76
2023/10/22 05:32:32;;;;;;;5.33;4.20;;;;;;;17.44;53.56;99956.04;2290420;76;50352;-76
2023/10/22 05:35:36;;;;;;;5.12;4.03;;;;;;;17.44;53.58;99955.22;2274621;76;51687;-77
2023/10/22 05:38:38;;;;;;;6.15;4.65;;;;;;;17.44;53.57;99956.04;2298472;76;50395;-76
2023/10/22 05:41:40;;;;;;;5.05;4.22;;;;;;;17.44;53.57;99957.38;2298587;76;50353;-77
2023/10/22 05:44:43;;;;;;;5.20;4.40;;;;;;;17.44;53.59;99967.25;2272842;76;51644;-76
2023/10/22 05:47:45;;;;;;;4.87;4.30;;;;;;;17.43;53.61;99967.77;2271585;76;50407;-75
2023/10/22 05:50:47;;;;;;;5.15;4.22;;;;;;;17.42;53.60;99970.14;2324631;76;51431;-77
2023/10/22 05:53:50;;;;;;;5.30;4.40;;;;;;;17.43;53.59;99969.11;2298431;76;51428;-77
2023/10/22 05:56:52;;;;;;;5.37;4.33;;;;;;;17.44;53.59;99975.28;2298373;76;51453;-76
2023/10/22 05:59:57;;;;;;;5.30;4.00;;;;;;;17.44;53.60;99974.77;2325016;76;50630;-77
2023/10/22 06:02:59;;;;;;;5.63;4.47;;;;;;;17.44;53.62;99972.09;2329366;76;22273;-76
2023/10/22 06:06:01;;;;;;;5.15;4.10;;;;;;;17.49;53.46;99975.02;2326786;76;50732;-77
2023/10/22 06:09:03;;;;;;;4.80;4.00;;;;;;;17.53;53.37;99984.32;2299882;76;52483;-77
2023/10/22 06:12:07;;;;;;;5.95;4.05;;;;;;;17.51;53.41;99980.19;2273968;76;50179;-76
2023/10/22 06:15:10;;;;;;;5.50;3.98;;;;;;;17.48;53.50;99979.23;2300497;76;51568;-76
2023/10/22 06:18:12;;;;;;;4.95;3.77;;;;;;;17.46;53.55;99979.41;2273538;76;49974;-76
2023/10/22 06:21:15;;;;;;;5.05;4.25;;;;;;;17.44;53.58;99981.45;2299967;76;50629;-77
2023/10/22 06:24:18;;;;;;;5.20;3.85;;;;;;;17.46;53.58;99981.27;2299658;76;52476;-74
2023/10/22 06:27:20;;;;;;;5.25;3.72;;;;;;;17.44;53.62;99982.78;2274809;76;51647;-76
2023/10/22 06:30:24;;;;;;;4.30;3.90;;;;;;;17.44;53.64;99994.82;2275629;76;50366;-77
2023/10/22 06:33:26;;;;;;;5.12;3.98;;;;;;;17.45;53.63;99985.80;2301060;76;50152;-75
2023/10/22 06:36:28;;;;;;;5.45;3.65;;;;;;;17.44;53.63;99991.33;2298244;76;50606;-74
2023/10/22 06:39:30;;;;;;;5.50;4.22;;;;;;;17.44;53.62;99997.49;2298314;76;51531;-73
2023/10/22 06:42:33;;;;;;;4.55;3.72;;;;;;;17.45;53.62;99987.65;2298003;76;51599;-74
2023/10/22 06:45:37;;;;;;;4.67;3.87;;;;;;;17.44;53.65;100000.17;2298676;76;50289;-76
2023/10/22 06:48:39;;;;;;;5.40;4.20;;;;;;;17.45;53.63;99997.01;2324152;76;52463;-75
2023/10/22 06:51:42;;;;;;;4.37;3.85;;;;;;;17.44;53.63;100011.38;2298437;76;51528;-76
2023/10/22 06:54:44;;;;;;;4.47;3.75;;;;;;;17.45;53.62;100001.02;2297984;76;51527;-76
2023/10/22 06:57:46;;;;;;;4.80;3.87;;;;;;;17.45;53.63;100008.53;2324405;76;50067;-76
2023/10/22 07:00:48;;;;;;;5.10;3.92;;;;;;;17.47;53.58;100011.84;2298806;76;50662;-77
2023/10/22 07:03:50;;;;;;;4.65;4.10;;;;;;;17.46;53.64;100009.34;2301122;76;51433;-77
2023/10/22 07:06:53;;;;;;;5.12;4.00;;;;;;;17.46;53.61;100004.82;2299933;76;50621;-76
2023/10/22 07:09:55;;;;;;;4.25;3.60;;;;;;;17.49;53.53;100000.42;2326680;76;51422;-76
2023/10/22 07:12:58;;;;;;;4.83;4.08;;;;;;;17.62;53.21;100004.58;2274654;76;49692;-76
2023/10/22 07:16:00;;;;;;;5.10;3.83;;;;;;;17.63;53.17;100006.22;2326503;76;50725;-77
2023/10/22 07:19:02;;;;;;;5.20;3.77;;;;;;;17.61;53.20;100005.58;2300023;76;51548;-76
2023/10/22 07:22:05;;;;;;;5.35;3.95;;;;;;;17.58;53.30;100015.85;2276092;76;51496;-76
2023/10/22 07:25:08;;;;;;;4.03;3.47;;;;;;;17.55;53.39;100011.71;2301675;76;50912;-76
2023/10/22 07:28:12;;;;;;;4.33;3.67;;;;;;;17.59;53.32;100004.13;2275338;76;50655;-74
2023/10/22 07:31:17;;;;;;;4.30;3.72;;;;;;;17.56;53.40;100009.86;2310199;74;23038;-77
2023/10/22 07:34:18;;;;;;;5.28;3.40;;;;;;;17.56;53.39;100014.69;2288523;77;22286;-75
2023/10/22 07:37:21;;;;;;;4.20;3.60;;;;;;;17.57;53.44;100016.85;2263321;76;52428;-75
2023/10/22 07:40:23;;;;;;;5.12;4.10;;;;;;;17.59;53.42;100014.82;2263500;77;51395;-76
2023/10/22 07:43:26;;;;;;;4.72;3.65;;;;;;;17.62;53.35;100013.95;2289152;76;50652;-75
2023/10/22 07:46:29;;;;;;;4.83;3.77;;;;;;;17.64;53.21;100006.53;2238568;77;49799;-76
2023/10/22 07:49:31;;;;;;;4.95;3.72;;;;;;;17.64;53.33;100011.88;2263358;76;50174;-76
2023/10/22 07:52:34;;;;;;;4.58;3.70;;;;;;;17.60;53.41;100003.12;2263302;77;50534;-76
2023/10/22 07:55:38;;;;;;;4.30;3.67;;;;;;;17.61;53.39;100012.27;2263596;76;50742;-76
2023/10/22 07:58:40;;;;;;;4.22;3.55;;;;;;;17.59;53.46;100010.29;2264119;77;50679;-75
2023/10/22 08:01:42;;;;;;;4.97;3.72;;;;;;;17.60;53.44;100015.98;2288098;75;51678;-75
2023/10/22 08:04:44;;;;;;;4.78;3.90;;;;;;;17.60;53.47;100014.64;2326798;76;50682;-75
2023/10/22 08:07:47;;;;;;;5.30;3.67;;;;;;;17.60;53.48;100016.49;2327876;75;50704;-77
2023/10/22 08:10:49;;;;;;;5.65;3.80;;;;;;;17.60;53.48;100019.99;2275887;76;52325;-75
2023/10/22 08:13:51;;;;;;;4.83;3.72;;;;;;;17.59;53.52;100014.30;2328081;75;51550;-76
2023/10/22 08:16:54;;;;;;;5.15;4.17;;;;;;;17.58;53.57;100024.70;2301065;76;50635;-76
2023/10/22 08:19:56;;;;;;;6.08;4.10;;;;;;;17.60;53.51;100029.35;2301150;76;51544;-77
2023/10/22 08:22:58;;;;;;;5.30;4.00;;;;;;;17.57;53.59;100023.05;2301097;75;50454;-76
2023/10/22 08:26:00;;;;;;;5.00;4.15;;;;;;;17.57;53.61;100029.74;2275985;76;50456;-76
2023/10/22 08:29:03;;;;;;;5.58;4.00;;;;;;;17.58;53.61;100033.23;2328229;76;50735;-77
2023/10/22 08:32:06;;;;;;;6.12;4.08;;;;;;;17.56;53.65;100031.26;2326915;76;50787;-76
2023/10/22 08:35:08;;;;;;;6.72;3.90;;;;;;;17.57;53.63;100024.88;2239860;77;51685;-76
2023/10/22 08:38:11;;;;;;;6.33;4.37;;;;;;;17.58;53.62;100034.58;2238716;77;50665;-76
2023/10/22 08:41:19;;;;;;;5.15;3.80;;;;;;;17.59;53.62;100033.55;2263444;77;51477;-75
2023/10/22 08:44:21;;;;;;;7.03;4.00;;;;;;;17.58;53.60;100038.08;2288737;77;50278;-76
2023/10/22 08:47:23;;;;;;;6.75;4.35;;;;;;;17.60;53.63;100047.26;2289089;77;50643;-74
2023/10/22 08:50:25;;;;;;;8.20;4.80;;;;;;;17.58;53.64;100043.42;2289180;76;50650;-74
2023/10/22 08:53:28;;;;;;;7.35;4.70;;;;;;;17.59;53.61;100042.39;2289174;77;51473;-75
2023/10/22 08:56:32;;;;;;;9.28;5.12;;;;;;;17.60;53.61;100039.23;2289265;77;50673;-75
2023/10/22 08:59:38;;;;;;;7.92;5.00;;;;;;;17.58;53.65;100036.73;2238952;77;50990;-74
2023/10/22 09:02:43;;;;;;;9.25;5.28;;;;;;;17.59;53.65;100029.53;2319371;76;50702;-75
2023/10/22 09:05:46;;;;;;;7.72;5.35;;;;;;;17.59;53.65;100037.56;2328284;74;50793;-75
2023/10/22 09:08:48;;;;;;;8.90;5.53;;;;;;;17.60;53.63;100043.25;2301767;76;50778;-75
2023/10/22 09:11:57;;;;;;;9.70;5.72;;;;;;;17.59;53.70;100042.91;2301397;76;50642;-75
2023/10/22 09:14:59;;;;;;;7.25;5.67;;;;;;;17.59;53.64;100033.03;2275305;76;51702;-76
2023/10/22 09:18:05;;;;;;;8.93;6.10;;;;;;;17.59;53.64;100034.37;2302862;76;50284;-75
2023/10/22 09:21:07;;;;;;;9.23;5.97;;;;;;;17.57;53.68;100035.58;2329815;75;50536;-77
2023/10/22 09:24:09;;;;;;;9.55;6.20;;;;;;;17.58;53.65;100036.73;2275970;76;51662;-76
2023/10/22 09:27:12;;;;;;;8.80;6.33;;;;;;;17.56;53.69;100040.11;2328857;76;50644;-76
2023/10/22 09:30:15;;;;;;;8.10;6.12;;;;;;;17.57;53.68;100035.09;2328848;75;51571;-76
2023/10/22 09:33:20;;;;;;;8.88;6.12;;;;;;;17.57;53.73;100040.92;2304731;75;51478;-76
2023/10/22 09:36:25;;;;;;;9.55;7.10;;;;;;;17.57;53.71;100030.23;2328909;74;51460;-74
2023/10/22 09:39:36;;;;;;;9.93;7.08;;;;;;;17.57;53.71;100027.55;2303025;75;22317;-75
2023/10/22 09:42:38;;;;;;;10.50;6.72;;;;;;;17.57;53.75;100031.56;2303226;75;50789;-76
2023/10/22 09:45:40;;;;;;;9.68;6.78;;;;;;;17.58;53.69;100034.58;2329495;75;50668;-77
2023/10/22 09:48:42;;;;;;;10.58;6.90;;;;;;;17.57;53.76;100032.42;2329360;74;50706;-76
2023/10/22 09:51:45;;;;;;;9.40;6.90;;;;;;;17.56;53.75;100032.08;2329485;76;50637;-76
2023/10/22 09:54:49;;;;;;;11.03;7.28;;;;;;;17.56;53.81;100037.95;2329230;76;51428;-76
2023/10/22 09:57:51;;;;;;;11.85;8.23;;;;;;;17.56;53.79;100038.77;2330855;74;22139;-76
2023/10/22 10:00:53;;;;;;;11.75;7.97;;;;;;;17.56;53.74;100041.45;2310405;74;51634;-75
2023/10/22 10:03:55;;;;;;;10.58;7.65;;;;;;;17.55;53.78;100038.46;2333387;76;50695;-76
2023/10/22 10:06:57;;;;;;;11.35;7.40;;;;;;;17.55;53.81;100035.79;2303160;76;51756;-73
2023/10/22 10:10:00;;;;;;;12.50;8.15;;;;;;;17.56;53.76;100045.45;2330818;72;50755;-76
2023/10/22 10:13:03;;;;;;;12.15;8.15;;;;;;;17.56;53.77;100043.30;2329156;75;50820;-75
2023/10/22 10:16:06;;;;;;;12.05;7.90;;;;;;;17.56;53.76;100045.45;2300436;76;51510;-74
2023/10/22 10:19:11;;;;;;;12.15;8.25;;;;;;;17.56;53.71;100037.43;2300912;76;50702;-76
2023/10/22 10:22:33;;;;;;;10.82;7.97;;;;;;;17.56;53.77;100037.95;2327741;75;51350;-75
2023/10/22 10:25:38;;;;;;;11.40;7.62;;;;;;;17.56;53.76;100038.77;2326835;75;50475;-76
2023/10/22 10:28:44;;;;;;;10.70;7.80;;;;;;;17.55;53.80;100041.14;2326959;76;51751;-76
2023/10/22 10:31:54;;;;;;;10.32;7.85;;;;;;;17.55;53.77;100035.79;2307779;75;50877;-75
2023/10/22 10:34:54;;;;;;;12.43;7.87;;;;;;;17.57;53.71;100031.56;2323279;76;22492;-77
2023/10/22 10:38:18;;;;;;;12.13;7.12;;;;;;;17.56;53.77;100025.91;2314598;76;51360;-76
2023/10/22 10:41:53;;;;;;;10.35;7.12;;;;;;;17.56;53.77;100028.06;2339726;76;51570;-76
2023/10/22 10:45:00;;;;;;;10.32;7.40;;;;;;;17.57;53.74;100031.56;2339529;76;50294;-77
2023/10/22 10:48:03;;;;;;;10.65;7.25;;;;;;;17.57;53.75;100027.06;2314431;76;51659;-76
2023/10/22 10:51:22;;;;;;;10.60;6.95;;;;;;;17.55;53.75;100022.41;2314345;76;50747;-76
2023/10/22 10:54:24;;;;;;;12.43;7.10;;;;;;;17.56;53.78;100025.39;2338741;76;50682;-76
2023/10/22 10:57:38;;;;;;;10.35;7.00;;;;;;;17.56;53.78;100024.05;2314397;76;51775;-77
2023/10/22 11:00:41;;;;;;;10.53;7.12;;;;;;;17.56;53.78;100023.23;2342497;75;50802;-77
2023/10/22 11:03:43;;;;;;;10.68;7.22;;;;;;;17.54;53.81;100019.91;2324869;75;51808;-76
2023/10/22 11:06:45;;;;;;;9.10;6.75;;;;;;;17.56;53.77;100024.57;2300459;76;50267;-76
2023/10/22 11:09:47;;;;;;;12.23;7.22;;;;;;;17.56;53.81;100024.57;2327163;75;50316;-77
2023/10/22 11:12:53;;;;;;;10.38;7.10;;;;;;;17.56;53.77;100017.37;2273180;76;49875;-77
2023/10/22 11:15:59;;;;;;;10.08;6.60;;;;;;;17.57;53.78;100026.21;2301618;75;50654;-76
2023/10/22 11:19:00;;;;;;;;;;;;;;;17.55;53.83;100027.77;2330188;76;50707;-77
2023/10/22 11:22:02;;;;;;;8.85;6.33;;;;;;;17.56;53.83;100024.05;2301984;75;51619;-76
2023/10/22 11:25:09;;;;;;;9.33;6.30;;;;;;;17.56;53.81;100024.05;2276085;76;50573;-75
2023/10/22 11:28:11;;;;;;;11.57;6.78;;;;;;;17.58;53.76;100026.55;2328829;75;50694;-77
2023/10/22 11:31:24;;;;;;;9.35;6.47;;;;;;;17.58;53.75;100024.70;2336578;75;51507;-73
2023/10/22 11:34:26;;;;;;;8.38;6.10;;;;;;;17.57;53.80;100023.54;2296154;75;50069;-76
2023/10/22 11:37:42;;;;;;;9.80;6.45;;;;;;;17.60;53.72;100024.52;2328461;76;51411;-75
2023/10/22 11:40:45;;;;;;;8.35;6.12;;;;;;;17.60;53.75;100033.87;2328748;74;51781;-76
2023/10/22 11:43:49;;;;;;;10.10;6.12;;;;;;;17.60;53.73;100035.22;2302180;76;51527;-77
2023/10/22 11:46:51;;;;;;;9.20;6.17;;;;;;;17.59;53.76;100029.53;2251188;75;51679;-74
2023/10/22 11:49:56;;;;;;;8.55;6.20;;;;;;;17.59;53.75;100031.69;2301854;76;51428;-75
2023/10/22 11:52:58;;;;;;;;;;;;;;;17.59;53.76;100039.72;2331326;75;50742;-76
2023/10/22 11:56:00;;;;;;;8.18;5.65;;;;;;;17.60;53.76;100040.05;2301852;76;50068;-76
2023/10/22 11:59:02;;;;;;;7.85;5.55;;;;;;;17.61;53.73;100031.00;2328936;75;50718;-75
2023/10/22 12:02:04;;;;;;;6.97;5.17;;;;;;;17.63;53.70;100032.98;2301840;76;50580;-77
2023/10/22 12:05:07;;;;;;;9.58;5.58;;;;;;;17.62;53.73;100033.16;2300385;76;51062;-76
2023/10/22 12:08:09;;;;;;;7.60;5.42;;;;;;;17.64;53.67;100039.15;2300272;76;51605;-76
2023/10/22 12:11:11;;;;;;;6.87;5.12;;;;;;;17.63;53.68;100040.18;2326372;76;50732;-75
2023/10/22 12:14:14;;;;;;;8.40;5.33;;;;;;;17.65;53.65;100043.50;2299871;76;50470;-76
2023/10/22 12:17:17;;;;;;;7.87;5.30;;;;;;;17.65;53.66;100040.83;2300314;76;50315;-76
2023/10/22 12:20:21;;;;;;;8.33;5.30;;;;;;;17.66;53.67;100041.64;2299980;76;50649;-77
2023/10/22 12:23:24;;;;;;;7.10;4.72;;;;;;;17.66;53.71;100049.67;2326871;76;22218;-77
2023/10/22 12:26:26;;;;;;;7.37;4.92;;;;;;;17.67;53.69;100056.67;2300550;76;51479;-75
2023/10/22 12:29:29;;;;;;;9.18;4.92;;;;;;;17.67;53.73;100056.67;2325976;75;51754;-75
2023/10/22 12:32:31;;;;;;;9.45;5.45;;;;;;;17.68;53.73;100061.02;2305145;76;50640;-76
2023/10/22 12:35:33;;;;;;;6.97;4.80;;;;;;;17.69;53.77;100069.35;2290273;77;51454;-76
2023/10/22 12:38:35;;;;;;;7.78;5.05;;;;;;;17.70;53.80;100064.30;2261755;77;51620;-75
2023/10/22 12:41:38;;;;;;;6.92;4.65;;;;;;;17.71;53.80;100065.98;2263387;77;51304;-75
2023/10/22 12:44:45;;;;;;;8.65;5.08;;;;;;;17.71;53.83;100066.80;2263337;77;50338;-76
2023/10/22 12:47:47;;;;;;;6.80;4.55;;;;;;;17.71;53.84;100062.78;2289161;77;51479;-74
2023/10/22 12:50:49;;;;;;;7.15;4.60;;;;;;;17.72;53.83;100070.30;2263653;77;50801;-75
2023/10/22 12:53:52;;;;;;;7.62;4.95;;;;;;;17.72;53.82;100070.30;2238839;77;51852;-75
2023/10/22 12:56:56;;;;;;;6.12;4.12;;;;;;;17.70;53.90;100085.71;2263793;77;51489;-76
2023/10/22 12:59:58;;;;;;;7.97;4.55;;;;;;;17.69;53.94;100088.08;2264249;77;50796;-75
2023/10/22 13:03:00;;;;;;;5.95;4.30;;;;;;;17.69;53.91;100094.25;2299030;76;50078;-75
2023/10/22 13:06:04;;;;;;;6.03;4.37;;;;;;;17.70;53.87;100096.41;2300151;76;50640;-76
2023/10/22 13:09:08;;;;;;;7.60;4.65;;;;;;;17.71;53.89;100099.42;2299783;76;51263;-76
2023/10/22 13:12:10;;;;;;;7.37;4.17;;;;;;;17.70;53.92;100104.44;2300480;76;50794;-75
2023/10/22 13:15:13;;;;;;;6.85;3.95;;;;;;;17.71;53.89;100100.77;2300115;76;51264;-76
2023/10/22 13:18:15;;;;;;;6.30;4.33;;;;;;;17.71;53.92;100110.12;2274676;76;51186;-75
2023/10/22 13:21:17;;;;;;;5.65;4.10;;;;;;;17.71;53.90;100115.48;2326404;76;50757;-74
2023/10/22 13:24:20;;;;;;;7.85;4.25;;;;;;;17.68;53.96;100112.67;2326236;76;50743;-75
2023/10/22 13:27:22;;;;;;;7.95;4.30;;;;;;;17.70;53.94;100117.81;2300031;76;50037;-77
2023/10/22 13:30:25;;;;;;;6.50;4.22;;;;;;;17.70;53.91;100119.16;2299953;76;50815;-77
2023/10/22 13:33:27;;;;;;;7.37;4.00;;;;;;;17.69;53.95;100122.86;2297477;76;50242;-78
2023/10/22 13:36:29;;;;;;;6.28;4.05;;;;;;;17.68;53.91;100130.58;2326185;76;50016;-76
2023/10/22 13:39:31;;;;;;;5.80;3.95;;;;;;;17.67;53.93;100133.74;2299791;76;50235;-76
2023/10/22 13:42:33;;;;;;;5.85;3.62;;;;;;;17.68;53.89;100133.26;2273903;76;51627;-75
2023/10/22 13:45:39;;;;;;;6.87;3.77;;;;;;;17.67;53.91;100142.28;2326057;76;50642;-76
2023/10/22 13:48:41;;;;;;;5.75;4.08;;;;;;;17.66;53.90;100146.81;2299688;76;50265;-74
2023/10/22 13:51:43;;;;;;;6.42;3.87;;;;;;;17.67;53.93;100154.33;2299990;76;50621;-74
2023/10/22 13:54:45;;;;;;;5.03;3.60;;;;;;;17.66;53.93;100149.48;2300120;76;50131;-76
2023/10/22 13:57:48;;;;;;;5.70;3.95;;;;;;;17.65;53.92;100149.18;2326112;75;49734;-76
2023/10/22 14:00:50;;;;;;;5.45;3.80;;;;;;;17.66;53.89;100155.35;2300966;76;50638;-74
2023/10/22 14:03:52;;;;;;;6.75;3.50;;;;;;;17.66;53.93;100155.35;2300523;76;50046;-76
2023/10/22 14:06:55;;;;;;;5.92;3.87;;;;;;;17.66;53.90;100160.70;2274862;76;52515;-75
2023/10/22 14:09:57;;;;;;;5.97;3.85;;;;;;;17.66;53.92;100168.73;2300502;76;50614;-77
2023/10/22 14:13:00;;;;;;;5.72;4.10;;;;;;;17.64;53.93;100169.73;2300001;76;50703;-77
2023/10/22 14:16:05;;;;;;;5.12;3.50;;;;;;;17.65;53.91;100175.94;2300419;76;50658;-76